Estación Meteorológica Peña el Pijo (Robertgarden) [ 07/12/20 05:42:31 CEST ]

Fecha Hora Presion(HPa) Temp (°C) Humedad % Rocio (°C) Viento ( m/s) Direccion Lluvia 1Hora(mm) Lluvia 24H(mm) LLuvia Total(mm)
2020-Jan-04 01:01:41 1018.800 -0.5 74 -4.6         39.88
2020-Jan-04 02:01:51 1018.500 -0.4 75 -4.3         39.88
2020-Jan-04 03:01:47 1018.200 -0.6 76 -4.3         39.88
2020-Jan-04 04:01:43 1018.400 -2.1 77 -5.6         39.88
2020-Jan-04 05:01:52 1018.300 -2.6 78 -5.9         39.88
2020-Jan-04 06:01:44 1018.200 -3.0 80 -6.0         39.88
2020-Jan-04 07:01:48 1018.300 -3.1 80 -6.1         39.88
2020-Jan-04 08:01:43 1018.600 -3.6 81 -6.4         39.88
2020-Jan-04 09:02:06 1018.800 -3.3 82 -6.0         39.88
2020-Jan-04 10:09:17 1019.300 - - - - NNW     39.88
2020-Jan-04 11:09:52 1019.500 - - - - NNW     39.88
2020-Jan-04 12:01:43 1018.900 10.4 60 3.0         39.88
2020-Jan-04 13:01:54 1018.000 11.6 55 2.8         39.88
2020-Jan-04 14:01:40 1017.200 12.4 53 3.0 3.2 N     39.88
2020-Jan-04 15:01:45 1016.900 12.5 53 3.1         39.88
2020-Jan-04 16:01:44 1017.000 12.1 55 3.3 0.7 NW     39.88
2020-Jan-04 17:01:47 1017.200 9.8 61 2.6         39.88
2020-Jan-04 18:01:51 1017.900 7.4 67 1.7         39.88
2020-Jan-04 19:01:44 1018.400 5.5 72 0.9         39.88
2020-Jan-04 20:01:39 1018.800 3.8 74 -0.4         39.88
2020-Jan-04 21:01:53 1019.000 1.8 77 -1.8         39.88
2020-Jan-04 22:01:51 1018.900 0.9 80 -2.2         39.88
2020-Jan-04 23:09:34 1018.600 - - - - NNE     39.88

Temperatura Máxima:12°    Temperatura Mínima:-3°
Presión Máxima:1019.500 Hpa    Presión Mínima:1016.900 Hpa


Volver